^^
Station Historical Data
Daily Summary for February 28, 2021 Units:  English    Metric   Both
Daily Weekly Monthly Yearly
  High: Low: Average:
Temperature: 40.2 °F 29.4 °F 34.8 °F
Dew Point: 38.6 °F 26.6 °F 32.1 °F
Humidity: 94% 80% 90%
Wind Speed: 12mph 0mph 3.7mph
Wind Gust: 14mph - -
Wind- - SSW
Pressure: 30.12 in 29.55 in -
Precipitation: 0.03 in    
 
 
Tabular Data for February 28, 2021
Time Temperature Dew Point Pressure Wind Wind Speed Wind Gust Humidity Rainfall Rate (Hourly) solar
00:00 30.7 °F 28.1 °F 30.12 in South 1 mph 1 mph 90% 0.00 in 0 W/m2
00:05 30.5 °F 27.9 °F 30.12 in South 1 mph 2 mph 90% 0.00 in 0 W/m2
00:10 30.3 °F 27.7 °F 30.12 in Calm   1 mph 90% 0.00 in 0 W/m2
00:15 30.3 °F 27.7 °F 30.12 in Calm   1 mph 90% 0.00 in 0 W/m2
00:20 30.6 °F 28.3 °F 30.11 in Calm   1 mph 91% 0.00 in 0 W/m2
00:25 30.6 °F 28 °F 30.11 in Calm   1 mph 90% 0.00 in 0 W/m2
00:30 30.4 °F 27.8 °F 30.12 in South 1 mph 2 mph 90% 0.00 in 0 W/m2
00:35 30.6 °F 28.3 °F 30.12 in South 1 mph 2 mph 91% 0.00 in 0 W/m2
00:40 30.5 °F 28.2 °F 30.12 in South 1 mph 1 mph 91% 0.00 in 0 W/m2
00:45 30.4 °F 28.1 °F 30.12 in South 1 mph 1 mph 91% 0.00 in 0 W/m2
00:50 30.4 °F 28.1 °F 30.12 in Calm     91% 0.00 in 0 W/m2
00:55 30.4 °F 28.1 °F 30.12 in Calm   1 mph 91% 0.00 in 0 W/m2
01:00 30.5 °F 28.2 °F 30.12 in Calm     91% 0.00 in 0 W/m2
01:05 30.3 °F 28 °F 30.12 in Calm   1 mph 91% 0.00 in 0 W/m2
01:15 30.1 °F 27.5 °F 30.12 in South 1 mph 2 mph 90% 0.00 in 0 W/m2
01:20 30 °F 27.4 °F 30.12 in South 1 mph 2 mph 90% 0.00 in 0 W/m2
01:25 30 °F 27.7 °F 30.12 in South 1 mph 2 mph 91% 0.00 in 0 W/m2
01:30 30.2 °F 27.9 °F 30.12 in South 1 mph 1 mph 91% 0.00 in 0 W/m2
01:40 30.4 °F 28.1 °F 30.12 in South 1 mph 1 mph 91% 0.00 in 0 W/m2
01:45 30.5 °F 28.2 °F 30.11 in South 1 mph 1 mph 91% 0.00 in 0 W/m2
01:50 30.6 °F 28.3 °F 30.11 in South 1 mph 1 mph 91% 0.00 in 0 W/m2
01:55 30.7 °F 28.4 °F 30.11 in South 1 mph 1 mph 91% 0.00 in 0 W/m2
02:00 30.8 °F 28.5 °F 30.11 in South 1 mph 1 mph 91% 0.00 in 0 W/m2
02:10 30.9 °F 28.6 °F 30.11 in South 1 mph 1 mph 91% 0.00 in 0 W/m2
02:15 31 °F 28.7 °F 30.11 in South 1 mph 1 mph 91% 0.00 in 0 W/m2
02:20 30.9 °F 28.6 °F 30.11 in South 1 mph 1 mph 91% 0.00 in 0 W/m2
02:25 30.7 °F 28.1 °F 30.11 in South 1 mph 1 mph 90% 0.00 in 0 W/m2
02:30 30.7 °F 28.4 °F 30.10 in South 1 mph 1 mph 91% 0.00 in 0 W/m2
02:35 30.7 °F 28.4 °F 30.10 in South 1 mph 1 mph 91% 0.00 in 0 W/m2
02:40 30.8 °F 28.5 °F 30.10 in South 1 mph 2 mph 91% 0.00 in 0 W/m2
02:50 31 °F 28.7 °F 30.10 in South 2 mph 2 mph 91% 0.00 in 0 W/m2
03:05 31.5 °F 29.2 °F 30.09 in South 1 mph 1 mph 91% 0.00 in 0 W/m2
03:10 31.7 °F 29.4 °F 30.09 in South 1 mph 1 mph 91% 0.00 in 0 W/m2
03:15 31.7 °F 29.4 °F 30.09 in South 1 mph 3 mph 91% 0.00 in 0 W/m2
03:20 31.6 °F 29.3 °F 30.09 in South 2 mph 2 mph 91% 0.00 in 0 W/m2
03:25 31.3 °F 28.7 °F 30.09 in SE 2 mph 2 mph 90% 0.00 in 0 W/m2
03:30 30.9 °F 28.3 °F 30.09 in SSE 1 mph 1 mph 90% 0.00 in 0 W/m2
03:35 30.4 °F 27.8 °F 30.09 in SSE 1 mph 1 mph 90% 0.00 in 0 W/m2
03:40 30 °F 27.2 °F 30.09 in Calm     89% 0.00 in 0 W/m2
03:45 29.9 °F 27.3 °F 30.09 in Calm     90% 0.00 in 0 W/m2
03:50 29.8 °F 27.2 °F 30.08 in Calm   1 mph 90% 0.00 in 0 W/m2
03:55 29.7 °F 27.1 °F 30.08 in SSE 1 mph 1 mph 90% 0.00 in 0 W/m2
04:00 29.5 °F 26.7 °F 30.08 in Calm     89% 0.00 in 0 W/m2
04:05 29.4 °F 26.6 °F 30.08 in Calm   1 mph 89% 0.00 in 0 W/m2
04:10 29.4 °F 26.8 °F 30.07 in SSE 1 mph 1 mph 90% 0.00 in 0 W/m2
04:15 29.4 °F 26.8 °F 30.07 in SSE 1 mph 1 mph 90% 0.00 in 0 W/m2
04:25 29.9 °F 27.6 °F 30.07 in SSE 1 mph 1 mph 91% 0.00 in 0 W/m2
04:30 30.4 °F 28.1 °F 30.07 in SSE 1 mph 1 mph 91% 0.00 in 0 W/m2
04:40 31 °F 28.7 °F 30.07 in SSE 1 mph 2 mph 91% 0.00 in 0 W/m2
04:45 31.2 °F 28.9 °F 30.07 in ESE 1 mph 2 mph 91% 0.00 in 0 W/m2
04:50 31.3 °F 29 °F 30.07 in ESE 2 mph 2 mph 91% 0.00 in 0 W/m2
04:55 31.2 °F 28.9 °F 30.06 in SE 2 mph 3 mph 91% 0.00 in 0 W/m2
05:00 31 °F 28.7 °F 30.06 in ESE 2 mph 2 mph 91% 0.00 in 0 W/m2
05:05 30.8 °F 28.5 °F 30.06 in ESE 3 mph 3 mph 91% 0.00 in 0 W/m2
05:10 30.7 °F 28.4 °F 30.05 in ESE 3 mph 3 mph 91% 0.00 in 0 W/m2
05:25 31.1 °F 28.8 °F 30.04 in ESE 3 mph 3 mph 91% 0.00 in 0 W/m2
05:30 31.1 °F 28.8 °F 30.04 in ESE 2 mph 2 mph 91% 0.00 in 0 W/m2
05:40 31.3 °F 29 °F 30.03 in ESE 2 mph 3 mph 91% 0.00 in 0 W/m2
05:45 31.3 °F 29 °F 30.03 in SE 2 mph 3 mph 91% 0.00 in 0 W/m2
05:50 31.2 °F 28.9 °F 30.03 in SE 2 mph 2 mph 91% 0.00 in 0 W/m2
06:00 30.9 °F 28.6 °F 30.03 in ESE 2 mph 3 mph 91% 0.00 in 0 W/m2
06:05 30.8 °F 28.5 °F 30.03 in SE 2 mph 3 mph 91% 0.00 in 0 W/m2
06:10 30.6 °F 28.3 °F 30.02 in SE 2 mph 2 mph 91% 0.00 in 0 W/m2
06:15 30.5 °F 28.2 °F 30.02 in SE 2 mph 2 mph 91% 0.00 in 0 W/m2
06:25 30.9 °F 28.6 °F 30.01 in SE 2 mph 2 mph 91% 0.00 in 0 W/m2
06:30 31.2 °F 29.1 °F 30.00 in ESE 2 mph 3 mph 92% 0.00 in 0 W/m2
06:35 31.7 °F 29.6 °F 30.00 in East 3 mph 3 mph 92% 0.00 in 0 W/m2
06:40 32.2 °F 30.1 °F 29.99 in East 3 mph 3 mph 92% 0.00 in 0 W/m2
06:45 32.5 °F 30.4 °F 29.99 in East 2 mph 3 mph 92% 0.00 in 0 W/m2
06:50 32.8 °F 30.7 °F 29.98 in East 1 mph 1 mph 92% 0.00 in 0 W/m2
07:00 32.1 °F 30 °F 29.98 in East 1 mph 1 mph 92% 0.00 in 0 W/m2
07:05 31.8 °F 29.5 °F 29.97 in East 1 mph 1 mph 91% 0.00 in 0 W/m2
07:20 30.9 °F 28.6 °F 29.97 in East 1 mph 1 mph 91% 0.00 in 5 W/m2
07:25 30.8 °F 28.5 °F 29.97 in Calm   1 mph 91% 0.00 in 9 W/m2
07:30 30.8 °F 28.5 °F 29.97 in Calm     91% 0.00 in 12 W/m2
07:35 30.7 °F 28.4 °F 29.96 in Calm   1 mph 91% 0.00 in 16 W/m2
07:40 30.6 °F 28.3 °F 29.96 in East 1 mph 1 mph 91% 0.00 in 21 W/m2
07:45 30.7 °F 28.4 °F 29.96 in ESE 1 mph 1 mph 91% 0.00 in 23 W/m2
07:50 31 °F 28.9 °F 29.96 in SE 2 mph 2 mph 92% 0.00 in 23 W/m2
07:55 31.5 °F 29.4 °F 29.96 in SE 2 mph 3 mph 92% 0.00 in 32 W/m2
08:00 31.5 °F 29.4 °F 29.95 in SE 3 mph 3 mph 92% 0.00 in 39 W/m2
08:10 31.2 °F 29.1 °F 29.94 in SE 3 mph 3 mph 92% 0.00 in 58 W/m2
08:15 31.3 °F 29.2 °F 29.93 in SE 4 mph 4 mph 92% 0.00 in 74 W/m2
08:20 31.4 °F 29.3 °F 29.93 in SE 4 mph 4 mph 92% 0.00 in 84 W/m2
08:25 31.8 °F 29.7 °F 29.93 in SE 4 mph 5 mph 92% 0.00 in 90 W/m2
08:30 32.1 °F 30 °F 29.92 in SE 5 mph 5 mph 92% 0.00 in 102 W/m2
08:35 32.5 °F 30.4 °F 29.92 in SE 6 mph 7 mph 92% 0.00 in 86 W/m2
08:40 32.6 °F 30.5 °F 29.92 in SE 6 mph 6 mph 92% 0.00 in 70 W/m2
08:45 32.6 °F 30.5 °F 29.92 in SSE 6 mph 6 mph 92% 0.00 in 81 W/m2
08:50 32.5 °F 30.4 °F 29.91 in SE 7 mph 7 mph 92% 0.00 in 88 W/m2
08:55 32.5 °F 30.4 °F 29.91 in ESE 7 mph 7 mph 92% 0.00 in 158 W/m2
09:00 32.8 °F 30.7 °F 29.90 in SE 7 mph 7 mph 92% 0.00 in 132 W/m2
09:10 33.7 °F 31.6 °F 29.89 in SE 6 mph 7 mph 92% 0.00 in 183 W/m2
09:15 34.1 °F 32 °F 29.89 in SE 6 mph 7 mph 92% 0.00 in 151 W/m2
09:20 34.4 °F 32 °F 29.88 in SE 6 mph 7 mph 91% 0.00 in 234 W/m2
09:25 35 °F 32.4 °F 29.88 in ESE 7 mph 7 mph 90% 0.00 in 283 W/m2
09:30 35.4 °F 32.8 °F 29.87 in SE 7 mph 9 mph 90% 0.00 in 278 W/m2
09:35 36 °F 33.1 °F 29.87 in SE 7 mph 9 mph 89% 0.00 in 371 W/m2
09:40 36 °F 32.8 °F 29.86 in SE 7 mph 8 mph 88% 0.00 in 301 W/m2
09:50 36.8 °F 33 °F 29.85 in SE 8 mph 10 mph 86% 0.00 in 396 W/m2
09:55 37.1 °F 33 °F 29.85 in SE 9 mph 10 mph 85% 0.00 in 265 W/m2
10:05 37.2 °F 32.8 °F 29.84 in ESE 9 mph 10 mph 84% 0.00 in 279 W/m2
10:10 37.1 °F 32.7 °F 29.84 in SE 9 mph 9 mph 84% 0.00 in 279 W/m2
10:15 37.2 °F 32.5 °F 29.84 in SSE 9 mph 9 mph 83% 0.00 in 473 W/m2
10:30 37.4 °F 32.7 °F 29.83 in SE 8 mph 8 mph 83% 0.00 in 353 W/m2
10:35 37.5 °F 32.8 °F 29.83 in SE 8 mph 8 mph 83% 0.00 in 271 W/m2
10:40 37.4 °F 32.7 °F 29.82 in SSE 8 mph 8 mph 83% 0.00 in 353 W/m2
10:45 37.4 °F 32.7 °F 29.83 in ESE 7 mph 8 mph 83% 0.00 in 411 W/m2
10:50 37.1 °F 32.4 °F 29.83 in SE 5 mph 5 mph 83% 0.00 in 592 W/m2
11:00 37.5 °F 32.5 °F 29.82 in SE 4 mph 5 mph 82% 0.00 in 287 W/m2
11:05 37.9 °F 32.9 °F 29.82 in SE 5 mph 5 mph 82% 0.00 in 292 W/m2
11:20 37.2 °F 32.2 °F 29.81 in SE 4 mph 4 mph 82% 0.00 in 253 W/m2
11:25 37.7 °F 32.7 °F 29.81 in WNW 3 mph 4 mph 82% 0.00 in 339 W/m2
11:30 38.6 °F 33 °F 29.80 in WSW 4 mph 5 mph 80% 0.00 in 397 W/m2
11:35 37.9 °F 32.6 °F 29.80 in ESE 4 mph 8 mph 81% 0.00 in 253 W/m2
11:40 37.7 °F 32.4 °F 29.80 in East 4 mph 5 mph 81% 0.00 in 192 W/m2
11:45 37.2 °F 32.2 °F 29.79 in NNW 4 mph 5 mph 82% 0.00 in 185 W/m2
11:50 37.1 °F 32.4 °F 29.79 in SE 3 mph 4 mph 83% 0.00 in 274 W/m2
12:05 37.2 °F 32.8 °F 29.78 in WSW 4 mph 4 mph 84% 0.00 in 424 W/m2
12:10 37.3 °F 32.9 °F 29.77 in NW 3 mph 3 mph 84% 0.00 in 686 W/m2
12:20 37.4 °F 33.3 °F 29.76 in NW 3 mph 3 mph 85% 0.00 in 415 W/m2
12:25 37.8 °F 33.4 °F 29.75 in East 3 mph 3 mph 84% 0.00 in 475 W/m2
12:30 37.3 °F 33.2 °F 29.75 in NNE 3 mph 4 mph 85% 0.00 in 244 W/m2
12:35 37 °F 33.2 °F 29.75 in SW 3 mph 4 mph 86% 0.00 in 327 W/m2
12:40 37.1 °F 33 °F 29.74 in East 4 mph 4 mph 85% 0.00 in 283 W/m2
12:45 37.1 °F 33.3 °F 29.73 in NNW 4 mph 4 mph 86% 0.00 in 325 W/m2
12:50 37 °F 33.2 °F 29.73 in NNE 4 mph 4 mph 86% 0.00 in 295 W/m2
12:55 36.8 °F 33 °F 29.73 in NNW 4 mph 4 mph 86% 0.00 in 299 W/m2
13:00 36.6 °F 33.1 °F 29.73 in NNW 3 mph 3 mph 87% 0.00 in 241 W/m2
13:05 36.8 °F 33.3 °F 29.73 in NE 3 mph 4 mph 87% 0.00 in 234 W/m2
13:10 36.8 °F 33.3 °F 29.72 in WNW 3 mph 4 mph 87% 0.00 in 304 W/m2
13:15 36.6 °F 33.1 °F 29.71 in WSW 3 mph 4 mph 87% 0.00 in 292 W/m2
13:20 36.6 °F 33.4 °F 29.71 in NE 3 mph 3 mph 88% 0.00 in 199 W/m2
13:25 36.5 °F 33.3 °F 29.71 in NNW 3 mph 3 mph 88% 0.00 in 221 W/m2
13:30 36.2 °F 33 °F 29.71 in North 3 mph 3 mph 88% 0.00 in 199 W/m2
13:35 36.1 °F 33.2 °F 29.70 in NW 3 mph 4 mph 89% 0.00 in 206 W/m2
13:40 36.5 °F 33.6 °F 29.69 in West 3 mph 7 mph 89% 0.00 in 204 W/m2
13:45 36.1 °F 33.2 °F 29.69 in NNW 3 mph 7 mph 89% 0.00 in 279 W/m2
13:55 36.4 °F 33.7 °F 29.66 in SSE 2 mph 4 mph 90% 0.00 in 564 W/m2
14:05 36.2 °F 33.3 °F 29.67 in NW 3 mph 4 mph 89% 0.00 in 218 W/m2
14:10 36.1 °F 33.5 °F 29.66 in NW 3 mph 3 mph 90% 0.00 in 190 W/m2
14:15 35.8 °F 33.2 °F 29.66 in NW 3 mph 3 mph 90% 0.00 in 171 W/m2
14:20 36.1 °F 33.7 °F 29.65 in North 2 mph 2 mph 91% 0.00 in 250 W/m2
14:30 36 °F 33.6 °F 29.65 in NNW 2 mph 2 mph 91% 0.00 in 148 W/m2
14:35 35.9 °F 33.5 °F 29.65 in NNE 2 mph 2 mph 91% 0.00 in 98 W/m2
14:40 35.6 °F 33.2 °F 29.65 in NW 2 mph 2 mph 91% 0.00 in 113 W/m2
14:45 35.6 °F 33.2 °F 29.65 in NNW 2 mph 3 mph 91% 0.00 in 86 W/m2
14:50 35.7 °F 33.3 °F 29.64 in NNE 2 mph 3 mph 91% 0.00 in 67 W/m2
14:55 35.6 °F 33.5 °F 29.64 in NW 2 mph 3 mph 92% 0.00 in 63 W/m2
15:00 35.7 °F 33.6 °F 29.64 in NW 2 mph 2 mph 92% 0.00 in 56 W/m2
15:05 35.9 °F 33.8 °F 29.64 in NW 2 mph 2 mph 92% 0.00 in 114 W/m2
15:10 35.8 °F 33.7 °F 29.64 in North 2 mph 2 mph 92% 0.00 in 100 W/m2
15:15 35.8 °F 33.7 °F 29.64 in North 2 mph 2 mph 92% 0.00 in 123 W/m2
15:20 35.5 °F 33.4 °F 29.63 in ESE 2 mph 2 mph 92% 0.00 in 97 W/m2
15:25 35.2 °F 33.1 °F 29.63 in NNW 2 mph 2 mph 92% 0.00 in 156 W/m2
15:35 35.7 °F 33.9 °F 29.61 in ENE 2 mph 2 mph 93% 0.00 in 165 W/m2
15:45 36.4 °F 34.6 °F 29.61 in North 2 mph 4 mph 93% 0.00 in 156 W/m2
15:50 36.5 °F 34.7 °F 29.61 in NE 2 mph 2 mph 93% 0.00 in 181 W/m2
15:55 36.4 °F 34.6 °F 29.61 in North 2 mph 2 mph 93% 0.00 in 155 W/m2
16:00 36.3 °F 34.5 °F 29.61 in NW 2 mph 3 mph 93% 0.00 in 283 W/m2
16:05 36 °F 34.2 °F 29.61 in NNW 2 mph 3 mph 93% 0.00 in 192 W/m2
16:10 35.7 °F 33.9 °F 29.60 in North 2 mph 2 mph 93% 0.00 in 127 W/m2
16:25 35.6 °F 33.8 °F 29.59 in North 2 mph 2 mph 93% 0.00 in 46 W/m2
16:30 35.6 °F 33.8 °F 29.59 in NNW 2 mph 2 mph 93% 0.00 in 67 W/m2
16:35 35.8 °F 34 °F 29.59 in ENE 2 mph 2 mph 93% 0.00 in 67 W/m2
16:40 36.5 °F 34.9 °F 29.58 in WNW 2 mph 3 mph 94% 0.00 in 47 W/m2
16:45 35.9 °F 34.1 °F 29.58 in North 2 mph 3 mph 93% 0.00 in 47 W/m2
16:50 35.9 °F 34.1 °F 29.58 in NW 2 mph 2 mph 93% 0.00 in 33 W/m2
16:55 35.8 °F 34 °F 29.58 in NW 2 mph 2 mph 93% 0.00 in 32 W/m2
17:00 36.2 °F 34.4 °F 29.58 in North 2 mph 2 mph 93% 0.00 in 25 W/m2
17:05 36.5 °F 34.7 °F 29.58 in North 2 mph 2 mph 93% 0.00 in 25 W/m2
17:10 36.2 °F 34.4 °F 29.58 in North 2 mph 2 mph 93% 0.00 in 28 W/m2
17:20 35.8 °F 34 °F 29.57 in North 2 mph 2 mph 93% 0.00 in 39 W/m2
17:25 36.6 °F 34.8 °F 29.57 in NNW 2 mph 2 mph 93% 0.00 in 26 W/m2
17:35 36.3 °F 34.5 °F 29.56 in WNW 2 mph 3 mph 93% 0.00 in 12 W/m2
17:40 36.3 °F 34.5 °F 29.55 in NW 2 mph 2 mph 93% 0.00 in 11 W/m2
17:45 36.4 °F 34.6 °F 29.55 in SSE 2 mph 2 mph 93% 0.00 in 7 W/m2
17:50 36.2 °F 34.4 °F 29.55 in NW 2 mph 2 mph 93% 0.00 in 7 W/m2
17:55 36.3 °F 34.5 °F 29.55 in NW 2 mph 3 mph 93% 0.00 in 7 W/m2
18:00 36.2 °F 34.4 °F 29.55 in WNW 2 mph 2 mph 93% 0.00 in 5 W/m2
18:05 36 °F 33.9 °F 29.57 in NW 2 mph 4 mph 92% 0.00 in 0 W/m2
18:10 37.9 °F 36.3 °F 29.58 in WNW 4 mph 4 mph 94% 0.00 in 0 W/m2
18:15 39.5 °F 37.9 °F 29.59 in WSW 5 mph 5 mph 94% 0.00 in 0 W/m2
18:20 40.2 °F 38.6 °F 29.58 in West 4 mph 6 mph 94% 0.16 in 0 W/m2
18:25 40.2 °F 38.3 °F 29.58 in WSW 5 mph 6 mph 93% 0.18 in 0 W/m2
18:35 40.2 °F 38.3 °F 29.58 in SW 6 mph 6 mph 93% 0.05 in 0 W/m2
18:40 39.1 °F 37 °F 29.58 in SSW 5 mph 5 mph 92% 0.00 in 0 W/m2
18:45 38.5 °F 36.4 °F 29.58 in SSW 5 mph 7 mph 92% 0.00 in 0 W/m2
18:55 38.9 °F 37 °F 29.57 in SSW 6 mph 7 mph 93% 0.00 in 0 W/m2
19:00 39.5 °F 37.9 °F 29.57 in West 7 mph 7 mph 94% 0.00 in 0 W/m2
19:05 39.2 °F 37.3 °F 29.56 in NNW 5 mph 7 mph 93% 0.00 in 0 W/m2
19:10 38.7 °F 36.9 °F 29.57 in SSW 4 mph 4 mph 93% 0.00 in 0 W/m2
19:15 39.1 °F 37.2 °F 29.57 in SW 6 mph 5 mph 93% 0.00 in 0 W/m2
19:20 39.4 °F 37.8 °F 29.58 in SW 8 mph 8 mph 94% 0.00 in 0 W/m2
19:25 39.5 °F 37.9 °F 29.57 in SSW 9 mph 10 mph 94% 0.00 in 0 W/m2
19:30 39.7 °F 38.1 °F 29.57 in SW 11 mph 11 mph 94% 0.00 in 0 W/m2
19:35 40 °F 38.4 °F 29.57 in WSW 12 mph 14 mph 94% 0.00 in 0 W/m2
19:55 40 °F 38.4 °F 29.58 in SSW 12 mph 12 mph 94% 0.00 in 0 W/m2
20:00 39.5 °F 37.6 °F 29.58 in WSW 11 mph 12 mph 93% 0.00 in 0 W/m2
20:05 38.9 °F 37 °F 29.58 in WSW 10 mph 12 mph 93% 0.00 in 0 W/m2
20:10 38.7 °F 36.9 °F 29.59 in WSW 9 mph 9 mph 93% 0.00 in 0 W/m2
20:15 38.4 °F 36.6 °F 29.59 in SW 8 mph 9 mph 93% 0.00 in 0 W/m2
20:20 38.3 °F 36.5 °F 29.60 in SW 7 mph 7 mph 93% 0.00 in 0 W/m2
20:25 38.2 °F 36.4 °F 29.60 in West 7 mph 11 mph 93% 0.00 in 0 W/m2
20:30 37.7 °F 35.9 °F 29.61 in SSW 7 mph 7 mph 93% 0.00 in 0 W/m2
20:35 37.4 °F 35.6 °F 29.60 in West 7 mph 7 mph 93% 0.00 in 0 W/m2
20:40 37.4 °F 35.6 °F 29.60 in SW 8 mph 9 mph 93% 0.00 in 0 W/m2
20:45 37.3 °F 35.5 °F 29.61 in WSW 8 mph 9 mph 93% 0.00 in 0 W/m2
20:50 37.2 °F 35.4 °F 29.61 in WSW 7 mph 7 mph 93% 0.00 in 0 W/m2
20:55 37.2 °F 35.4 °F 29.61 in WNW 7 mph 14 mph 93% 0.00 in 0 W/m2
21:00 37.2 °F 35.4 °F 29.61 in West 8 mph 8 mph 93% 0.00 in 0 W/m2
21:05 37.4 °F 35.6 °F 29.61 in West 7 mph 8 mph 93% 0.00 in 0 W/m2
21:10 37.3 °F 35.2 °F 29.61 in West 7 mph 7 mph 92% 0.00 in 0 W/m2
21:15 37.2 °F 35.1 °F 29.61 in West 6 mph 7 mph 92% 0.00 in 0 W/m2
21:20 37 °F 34.9 °F 29.62 in West 5 mph 9 mph 92% 0.00 in 0 W/m2
21:25 37.1 °F 35 °F 29.61 in West 6 mph 9 mph 92% 0.00 in 0 W/m2
21:30 37.2 °F 35.1 °F 29.62 in WNW 8 mph 8 mph 92% 0.00 in 0 W/m2
21:35 37.5 °F 35.1 °F 29.61 in WSW 7 mph 8 mph 91% 0.00 in 0 W/m2
21:40 37.5 °F 34.8 °F 29.61 in SSW 6 mph 6 mph 90% 0.00 in 0 W/m2
21:45 37.3 °F 34.6 °F 29.62 in WSW 6 mph 6 mph 90% 0.00 in 0 W/m2
21:50 37.2 °F 34.3 °F 29.62 in West 6 mph 6 mph 89% 0.00 in 0 W/m2
21:55 37.1 °F 34.2 °F 29.62 in SW 6 mph 6 mph 89% 0.00 in 0 W/m2
22:00 37 °F 34.1 °F 29.62 in West 5 mph 5 mph 89% 0.00 in 0 W/m2
22:05 36.8 °F 33.9 °F 29.62 in West 4 mph 5 mph 89% 0.00 in 0 W/m2
22:10 36.7 °F 33.5 °F 29.62 in West 4 mph 6 mph 88% 0.00 in 0 W/m2
22:15 36.7 °F 33.5 °F 29.63 in West 5 mph 6 mph 88% 0.00 in 0 W/m2
22:25 37 °F 33.8 °F 29.63 in West 6 mph 10 mph 88% 0.00 in 0 W/m2
22:30 37.1 °F 33.9 °F 29.64 in West 6 mph 14 mph 88% 0.00 in 0 W/m2
22:35 37.3 °F 34.1 °F 29.64 in West 7 mph 14 mph 88% 0.00 in 0 W/m2
22:40 37.4 °F 33.9 °F 29.64 in WSW 7 mph 7 mph 87% 0.00 in 0 W/m2
22:45 37.5 °F 34 °F 29.65 in West 6 mph 7 mph 87% 0.00 in 0 W/m2
22:50 37.6 °F 33.8 °F 29.65 in WNW 7 mph 7 mph 86% 0.00 in 0 W/m2
22:55 37.7 °F 33.9 °F 29.65 in West 6 mph 7 mph 86% 0.00 in 0 W/m2
23:00 37.7 °F 33.3 °F 29.65 in WSW 6 mph 6 mph 84% 0.00 in 0 W/m2
23:05 37.6 °F 33.2 °F 29.65 in West 7 mph 7 mph 84% 0.00 in 0 W/m2
23:10 37.6 °F 32.9 °F 29.66 in WNW 6 mph 14 mph 83% 0.00 in 0 W/m2
23:15 37.7 °F 32.7 °F 29.66 in WNW 7 mph 14 mph 82% 0.00 in 0 W/m2
23:20 37.8 °F 32.5 °F 29.66 in West 8 mph 8 mph 81% 0.00 in 0 W/m2
23:25 37.8 °F 32.5 °F 29.66 in North 7 mph 8 mph 81% 0.00 in 0 W/m2
23:30 37.7 °F 32.4 °F 29.67 in NW 8 mph 8 mph 81% 0.00 in 0 W/m2
23:35 37.6 °F 32.3 °F 29.67 in WNW 8 mph 8 mph 81% 0.00 in 0 W/m2
23:40 37.5 °F 32.2 °F 29.68 in West 7 mph 7 mph 81% 0.00 in 0 W/m2
23:45 37.5 °F 31.9 °F 29.68 in West 7 mph 7 mph 80% 0.00 in 0 W/m2
23:50 37.5 °F 31.9 °F 29.69 in WNW 7 mph 7 mph 80% 0.00 in 0 W/m2
23:55 37.3 °F 32 °F 29.69 in NW 5 mph 7 mph 81% 0.00 in 0 W/m2
Sand Point, Michigan, USA
Compliments of Weather Underground - 2 mb